Time;durP1;ratioP1;P1;durP2;ratioP2;P2;SDS_P1;SDS_P2;PMS_P1;PMS_P2;Temp;Humidity;BMP_temperature;BMP_pressure;BME280_temperature;BME280_humidity;BME280_pressure;Samples;Min_cycle;Max_cycle;Signal;HPM_P1;HPM_P2
2022/02/08 00:00:41;;;;;;;;;;;7.40;99.90;;;;;;5100315;28;19925;-73
2022/02/08 00:03:10;;;;;;;;;;;7.40;99.90;;;;;;5112233;28;20309;-72
2022/02/08 00:05:36;;;;;;;;;;;7.50;99.90;;;;;;5102634;28;20302;-72
2022/02/08 00:08:03;;;;;;;;;;;7.60;99.90;;;;;;5102835;28;19923;-73
2022/02/08 00:10:29;;;;;;;;;;;7.60;99.90;;;;;;5097420;28;20216;-73
2022/02/08 00:12:57;;;;;;;;;;;7.60;99.90;;;;;;5101534;28;19931;-73
2022/02/08 00:15:22;;;;;;;;;;;7.60;99.90;;;;;;5100110;28;20045;-72
2022/02/08 00:17:48;;;;;;;;;;;7.60;99.90;;;;;;5111634;28;19990;-73
2022/02/08 00:20:13;;;;;;;;;;;7.60;99.90;;;;;;5103709;28;19916;-73
2022/02/08 00:22:39;;;;;;;;;;;7.70;99.90;;;;;;5101799;28;19930;-73
2022/02/08 00:25:06;;;;;;;;;;;7.70;99.90;;;;;;5107708;28;20328;-73
2022/02/08 00:27:32;;;;;;;;;;;7.70;99.90;;;;;;5101125;28;19912;-73
2022/02/08 00:29:57;;;;;;;;;;;7.70;99.90;;;;;;5098246;28;20322;-72
2022/02/08 00:32:23;;;;;;;;;;;7.70;99.90;;;;;;5102186;28;20365;-74
2022/02/08 00:34:48;;;;;;;;;;;7.60;99.90;;;;;;5111689;28;19958;-73
2022/02/08 00:37:14;;;;;;;;;;;7.60;99.90;;;;;;5109080;28;19920;-73
2022/02/08 00:39:40;;;;;;;;;;;7.60;99.90;;;;;;5098371;28;19912;-73
2022/02/08 00:42:08;;;;;;;;;;;7.60;99.90;;;;;;5100644;28;20352;-73
2022/02/08 00:44:40;;;;;;;;;;;7.60;99.90;;;;;;5113702;28;19955;-72
2022/02/08 00:49:47;;;;;;;;;;;7.60;99.90;;;;;;5106154;28;19939;-72
2022/02/08 00:52:15;;;;;;;;;;;7.60;99.90;;;;;;5104881;28;20298;-73
2022/02/08 00:54:45;;;;;;;;;;;7.60;99.90;;;;;;5110311;28;19937;-72
2022/02/08 00:57:11;;;;;;;;;;;7.60;99.90;;;;;;5103820;28;20327;-72
2022/02/08 00:59:37;;;;;;;;;;;7.60;99.90;;;;;;5106139;28;20018;-72
2022/02/08 01:02:03;;;;;;;;;;;7.60;99.90;;;;;;5101781;28;19916;-72
2022/02/08 01:04:29;;;;;;;;;;;7.70;99.90;;;;;;5105465;28;19998;-73
2022/02/08 01:06:56;;;;;;;;;;;7.60;99.90;;;;;;5099985;28;20323;-72
2022/02/08 01:09:33;;;;;;;;;;;7.60;99.90;;;;;;5096445;28;20040;-73
2022/02/08 01:11:59;;;;;;;;;;;7.60;99.90;;;;;;5099485;28;19920;-73
2022/02/08 01:14:24;;;;;;;;;;;7.70;99.90;;;;;;5112073;28;19912;-72
2022/02/08 01:16:51;;;;;;;;;;;7.70;99.90;;;;;;5097323;28;19923;-72
2022/02/08 01:19:19;;;;;;;;;;;7.70;99.90;;;;;;5105079;28;20247;-72
2022/02/08 01:21:44;;;;;;;;;;;7.70;99.90;;;;;;5098417;28;19923;-72
2022/02/08 01:24:10;;;;;;;;;;;7.70;99.90;;;;;;5097285;28;19916;-72
2022/02/08 01:26:45;;;;;;;;;;;7.80;99.90;;;;;;5097040;28;19921;-72
2022/02/08 01:29:21;;;;;;;;;;;7.80;99.90;;;;;;5098849;28;19920;-72
2022/02/08 01:31:49;;;;;;;;;;;7.80;99.90;;;;;;5103736;28;19919;-72
2022/02/08 01:34:31;;;;;;;;;;;7.90;99.90;;;;;;5097332;28;19918;-72
2022/02/08 01:37:20;;;;;;;;;;;8.00;99.90;;;;;;5096873;28;19927;-72
2022/02/08 01:40:05;;;;;;;;;;;7.90;99.90;;;;;;5105529;28;19912;-72
2022/02/08 01:42:44;;;;;;;;;;;8.00;99.90;;;;;;5097869;28;19923;-72
2022/02/08 01:47:49;;;;;;;;;;;8.00;99.90;;;;;;5103073;28;19916;-72
2022/02/08 01:50:16;;;;;;;;;;;8.10;99.90;;;;;;5106212;27;19912;-72
2022/02/08 01:52:42;;;;;;;;;;;8.10;99.90;;;;;;5099753;28;20432;-72
2022/02/08 01:55:09;;;;;;;;;;;8.20;99.90;;;;;;5098445;28;19941;-72
2022/02/08 01:57:35;;;;;;;;;;;8.20;99.90;;;;;;5096633;28;19916;-73
2022/02/08 02:00:02;;;;;;;;;;;8.20;99.90;;;;;;5096111;28;19924;-73
2022/02/08 02:02:28;;;;;;;;;;;8.20;99.90;;;;;;5104445;28;20333;-72
2022/02/08 02:04:54;;;;;;;;;;;8.20;99.90;;;;;;5098418;28;19916;-73
2022/02/08 02:07:19;;;;;;;;;;;8.20;99.90;;;;;;5097595;28;19915;-72
2022/02/08 02:09:46;;;;;;;;;;;8.30;99.90;;;;;;5100108;28;19912;-73
2022/02/08 02:12:11;;;;;;;;;;;8.30;99.90;;;;;;5102658;28;20241;-73
2022/02/08 02:14:38;;;;;;;;;;;8.30;99.90;;;;;;5100224;28;20006;-73
2022/02/08 02:17:04;;;;;;;;;;;8.30;99.90;;;;;;5101612;28;19916;-72
2022/02/08 02:19:30;;;;;;;;;;;8.30;99.90;;;;;;5104200;28;19919;-73
2022/02/08 02:21:57;;;;;;;;;;;8.30;99.90;;;;;;5109050;28;19916;-73
2022/02/08 02:24:23;;;;;;;;;;;8.30;99.90;;;;;;5096122;28;19912;-73
2022/02/08 02:26:48;;;;;;;;;;;8.40;99.90;;;;;;5097890;28;19924;-73
2022/02/08 02:29:14;;;;;;;;;;;8.50;99.90;;;;;;5104176;28;19955;-72
2022/02/08 02:31:41;;;;;;;;;;;8.50;99.90;;;;;;5097753;28;20003;-72
2022/02/08 02:34:06;;;;;;;;;;;8.50;99.90;;;;;;5102086;28;19957;-72
2022/02/08 02:36:32;;;;;;;;;;;8.50;99.90;;;;;;5102397;28;19947;-71
2022/02/08 02:38:57;;;;;;;;;;;8.50;99.90;;;;;;5096483;28;20117;-72
2022/02/08 02:41:23;;;;;;;;;;;8.50;99.90;;;;;;5100230;28;19916;-73
2022/02/08 02:43:49;;;;;;;;;;;8.50;99.90;;;;;;5100638;28;19916;-72
2022/02/08 02:46:14;;;;;;;;;;;8.50;99.90;;;;;;5103156;28;19960;-74
2022/02/08 02:48:40;;;;;;;;;;;8.50;99.90;;;;;;5110101;28;19924;-73
2022/02/08 02:51:05;;;;;;;;;;;8.50;99.90;;;;;;5117495;27;19961;-73
2022/02/08 02:53:31;;;;;;;;;;;8.50;99.90;;;;;;5103688;28;20215;-74
2022/02/08 02:55:57;;;;;;;;;;;8.50;99.90;;;;;;5102077;28;19919;-73
2022/02/08 02:58:27;;;;;;;;;;;8.50;99.90;;;;;;5096765;28;19957;-73
2022/02/08 03:01:11;;;;;;;;;;;8.50;99.90;;;;;;5099300;28;19912;-73
2022/02/08 03:17:41;;;;;;;;;;;8.50;99.90;;;;;;5096448;28;20011;-73
2022/02/08 03:20:08;;;;;;;;;;;8.50;99.90;;;;;;5103590;28;19912;-74
2022/02/08 03:22:34;;;;;;;;;;;8.60;99.90;;;;;;5103019;28;20356;-73
2022/02/08 03:24:59;;;;;;;;;;;8.60;99.90;;;;;;5103581;28;19935;-74
2022/02/08 03:27:25;;;;;;;;;;;8.60;99.90;;;;;;5108547;28;20306;-74
2022/02/08 03:29:50;;;;;;;;;;;8.60;99.90;;;;;;5104439;28;19920;-73
2022/02/08 03:32:18;;;;;;;;;;;8.60;99.90;;;;;;5112068;28;19915;-73
2022/02/08 03:34:44;;;;;;;;;;;8.60;99.90;;;;;;5097133;28;20385;-73
2022/02/08 03:37:09;;;;;;;;;;;8.60;99.90;;;;;;5106325;28;20113;-74
2022/02/08 03:39:39;;;;;;;;;;;8.60;99.90;;;;;;5100915;28;19923;-73
2022/02/08 03:42:09;;;;;;;;;;;8.60;99.90;;;;;;5105254;28;19916;-73
2022/02/08 03:44:35;;;;;;;;;;;8.60;99.90;;;;;;5106371;28;19920;-73
2022/02/08 03:47:05;;;;;;;;;;;8.60;99.90;;;;;;5098501;28;19927;-73
2022/02/08 03:49:31;;;;;;;;;;;8.60;99.90;;;;;;5107321;28;19920;-72
2022/02/08 03:52:00;;;;;;;;;;;8.60;99.90;;;;;;5113658;27;19930;-73
2022/02/08 03:54:26;;;;;;;;;;;8.60;99.90;;;;;;5102591;28;19923;-74
2022/02/08 03:56:51;;;;;;;;;;;8.60;99.90;;;;;;5107226;28;20203;-73
2022/02/08 03:59:17;;;;;;;;;;;8.60;99.90;;;;;;5105711;28;19950;-73
2022/02/08 04:06:56;;;;;;;;;;;8.60;99.90;;;;;;5101253;28;20001;-73
2022/02/08 04:09:22;;;;;;;;;;;8.50;99.90;;;;;;5100618;28;19964;-74
2022/02/08 04:12:01;;;;;;;;;;;8.50;99.90;;;;;;5102891;28;19963;-73
2022/02/08 04:14:39;;;;;;;;;;;8.50;99.90;;;;;;5112902;28;19916;-73
2022/02/08 04:33:55;;;;;;;;;;;8.50;99.90;;;;;;5106812;28;19936;-73
2022/02/08 04:36:40;;;;;;;;;;;8.50;99.90;;;;;;5104613;28;19927;-72
2022/02/08 04:39:12;;;;;;;;;;;8.50;99.90;;;;;;5100094;28;19912;-73
2022/02/08 04:41:44;;;;;;;;;;;8.50;99.90;;;;;;5102685;28;19916;-73
2022/02/08 04:47:00;;;;;;;;;;;8.50;99.90;;;;;;5102933;27;19915;-74
2022/02/08 04:49:25;;;;;;;;;;;8.50;99.90;;;;;;5104616;28;19918;-73
2022/02/08 04:51:56;;;;;;;;;;;8.50;99.90;;;;;;5113513;28;20374;-73
2022/02/08 04:54:32;;;;;;;;;;;8.50;99.90;;;;;;5103552;28;19916;-73
2022/02/08 05:45:12;;;;;;;;;;;8.50;99.90;;;;;;5110096;28;19947;-74
2022/02/08 05:47:41;;;;;;;;;;;8.50;99.90;;;;;;5110084;28;19911;-72
2022/02/08 05:50:22;;;;;;;;;;;8.60;99.90;;;;;;5104298;28;19912;-73
2022/02/08 05:53:04;;;;;;;;;;;8.60;99.90;;;;;;5112893;27;19915;-73
2022/02/08 05:55:30;;;;;;;;;;;8.50;99.90;;;;;;5103823;28;19913;-73
2022/02/08 05:57:57;;;;;;;;;;;8.40;99.90;;;;;;5105292;28;20287;-74
2022/02/08 06:00:26;;;;;;;;;;;8.30;99.90;;;;;;5109514;28;19931;-72
2022/02/08 06:02:56;;;;;;;;;;;8.30;99.90;;;;;;5108109;28;19919;-73
2022/02/08 06:05:22;;;;;;;;;;;8.30;99.90;;;;;;5104667;28;19912;-73
2022/02/08 06:07:48;;;;;;;;;;;8.20;99.90;;;;;;5111687;28;20813;-72
2022/02/08 06:10:13;;;;;;;;;;;8.40;99.90;;;;;;5106926;28;20364;-73
2022/02/08 06:12:43;;;;;;;;;;;8.40;99.90;;;;;;5107269;28;19940;-73
2022/02/08 06:15:10;;;;;;;;;;;8.40;99.90;;;;;;5109100;28;19920;-73
2022/02/08 06:17:36;;;;;;;;;;;8.40;99.90;;;;;;5100060;28;20012;-73
2022/02/08 06:20:02;;;;;;;;;;;8.40;99.90;;;;;;5096955;28;20247;-73
2022/02/08 06:22:27;;;;;;;;;;;8.40;99.90;;;;;;5107829;27;19912;-73
2022/02/08 06:24:53;;;;;;;;;;;8.50;99.90;;;;;;5107522;28;19922;-73
2022/02/08 06:27:27;;;;;;;;;;;8.50;99.90;;;;;;5114147;28;20008;-74
2022/02/08 06:29:52;;;;;;;;;;;8.50;99.90;;;;;;5115111;28;19912;-73
2022/02/08 06:32:18;;;;;;;;;;;8.50;99.90;;;;;;5105998;28;19920;-73
2022/02/08 06:34:43;;;;;;;;;;;8.50;99.90;;;;;;5102638;28;20307;-74
2022/02/08 06:37:12;;;;;;;;;;;8.50;99.90;;;;;;5100859;28;19918;-74
2022/02/08 06:39:38;;;;;;;;;;;8.50;99.90;;;;;;5105581;28;19961;-73
2022/02/08 06:42:04;;;;;;;;;;;8.60;99.90;;;;;;5108904;28;20211;-73
2022/02/08 06:44:29;;;;;;;;;;;8.60;99.90;;;;;;5108093;28;19912;-73
2022/02/08 06:46:55;;;;;;;;;;;8.70;99.90;;;;;;5103059;28;19911;-73
2022/02/08 06:49:21;;;;;;;;;;;8.70;99.90;;;;;;5111900;28;19969;-73
2022/02/08 06:51:46;;;;;;;;;;;8.70;99.90;;;;;;5111963;27;19919;-74
2022/02/08 06:54:12;;;;;;;;;;;8.70;99.90;;;;;;5111168;28;19912;-73
2022/02/08 06:56:38;;;;;;;;;;;8.70;99.90;;;;;;5110490;28;20257;-74
2022/02/08 06:59:08;;;;;;;;;;;8.70;99.90;;;;;;5107351;28;19961;-73
2022/02/08 07:01:35;;;;;;;;;;;8.70;99.90;;;;;;5110746;28;20282;-74
2022/02/08 07:04:04;;;;;;;;;;;8.70;99.90;;;;;;5111383;28;19916;-72
2022/02/08 07:06:29;;;;;;;;;;;8.80;99.90;;;;;;5111530;28;19972;-74
2022/02/08 07:08:55;;;;;;;;;;;8.90;99.90;;;;;;5112955;28;19916;-73
2022/02/08 07:11:21;;;;;;;;;;;8.80;99.90;;;;;;5110359;28;20001;-74
2022/02/08 07:13:48;;;;;;;;;;;8.90;99.90;;;;;;5112187;28;19915;-74
2022/02/08 07:16:13;;;;;;;;;;;8.90;99.90;;;;;;5108939;28;19935;-74
2022/02/08 07:18:39;;;;;;;;;;;8.90;99.90;;;;;;5107221;28;20295;-72
2022/02/08 07:21:08;;;;;;;;;;;8.90;99.90;;;;;;5109323;28;20303;-72
2022/02/08 07:23:34;;;;;;;;;;;8.90;99.90;;;;;;5111402;28;19919;-72
2022/02/08 07:26:00;;;;;;;;;;;8.80;99.90;;;;;;5108547;28;21297;-74
2022/02/08 07:28:25;;;;;;;;;;;8.80;99.90;;;;;;5113802;28;19922;-75
2022/02/08 07:30:59;;;;;;;;;;;8.80;99.90;;;;;;5097420;28;20016;-73
2022/02/08 07:33:25;;;;;;;;;;;8.80;99.90;;;;;;5114086;28;19958;-73
2022/02/08 07:35:58;;;;;;;;;;;8.80;99.90;;;;;;5093663;28;19947;-73
2022/02/08 07:38:30;;;;;;;;;;;8.80;99.90;;;;;;5099119;28;19979;-73
2022/02/08 07:43:21;;;;;;;;;;;8.70;99.90;;;;;;5103056;28;19916;-73
2022/02/08 07:45:48;;;;;;;;;;;8.70;99.90;;;;;;5105106;28;19915;-73
2022/02/08 07:48:14;;;;;;;;;;;8.70;99.90;;;;;;5110357;28;20405;-73
2022/02/08 07:50:41;;;;;;;;;;;8.70;99.90;;;;;;5110844;28;20046;-73
2022/02/08 07:53:13;;;;;;;;;;;8.60;99.90;;;;;;5107366;28;19911;-73
2022/02/08 07:55:39;;;;;;;;;;;8.60;99.90;;;;;;5100072;28;20014;-73
2022/02/08 07:58:05;;;;;;;;;;;8.60;99.90;;;;;;5110538;28;19912;-73
2022/02/08 08:00:30;;;;;;;;;;;8.60;99.90;;;;;;5108932;28;19942;-73
2022/02/08 08:02:56;;;;;;;;;;;8.70;99.90;;;;;;5112097;28;19935;-74
2022/02/08 08:05:21;;;;;;;;;;;8.90;99.90;;;;;;5109605;28;20023;-73
2022/02/08 08:07:47;;;;;;;;;;;9.10;99.90;;;;;;5110566;28;19974;-73
2022/02/08 08:10:17;;;;;;;;;;;9.30;99.90;;;;;;5112343;28;19922;-74
2022/02/08 08:12:47;;;;;;;;;;;9.30;99.90;;;;;;5114280;28;19924;-73
2022/02/08 08:15:27;;;;;;;;;;;9.30;99.90;;;;;;5107323;28;20260;-73
2022/02/08 08:17:59;;;;;;;;;;;9.30;99.90;;;;;;5100088;28;19918;-73
2022/02/08 08:20:25;;;;;;;;;;;9.30;99.90;;;;;;5099862;28;19923;-73
2022/02/08 08:22:50;;;;;;;;;;;9.30;99.90;;;;;;5099144;28;19920;-73
2022/02/08 08:25:16;;;;;;;;;;;9.20;99.90;;;;;;5103002;28;20303;-73
2022/02/08 08:27:42;;;;;;;;;;;9.20;99.90;;;;;;5106026;28;19912;-73
2022/02/08 08:30:09;;;;;;;;;;;9.20;99.90;;;;;;5108148;28;19925;-73
2022/02/08 08:32:39;;;;;;;;;;;9.20;99.90;;;;;;5104683;28;20065;-74
2022/02/08 08:35:08;;;;;;;;;;;9.30;99.90;;;;;;5105136;28;19912;-72
2022/02/08 08:37:39;;;;;;;;;;;9.30;99.90;;;;;;5107635;28;20303;-74
2022/02/08 08:40:15;;;;;;;;;;;9.30;99.90;;;;;;5103268;28;19990;-74
2022/02/08 08:43:04;;;;;;;;;;;9.30;99.90;;;;;;5106213;28;20328;-73
2022/02/08 08:53:13;;;;;;;;;;;9.60;99.90;;;;;;5114567;27;19915;-73
2022/02/08 08:55:39;;;;;;;;;;;9.70;99.90;;;;;;5113189;28;20297;-73
2022/02/08 08:58:05;;;;;;;;;;;9.80;99.90;;;;;;5116083;28;19965;-73
2022/02/08 09:00:30;;;;;;;;;;;9.90;99.90;;;;;;5109587;28;19919;-73
2022/02/08 09:02:56;;;;;;;;;;;9.90;99.90;;;;;;5105675;28;19920;-73
2022/02/08 09:05:23;;;;;;;;;;;10.00;99.90;;;;;;5113583;28;19912;-73
2022/02/08 09:07:48;;;;;;;;;;;10.00;99.90;;;;;;5113668;28;19923;-73
2022/02/08 09:10:18;;;;;;;;;;;10.00;99.90;;;;;;5112514;28;19919;-73
2022/02/08 09:28:22;;;;;;;;;;;10.40;99.90;;;;;;5113477;28;20003;-74
2022/02/08 09:30:56;;;;;;;;;;;10.40;99.90;;;;;;5108330;28;19970;-73
2022/02/08 09:33:21;;;;;;;;;;;10.40;99.90;;;;;;5111330;28;19915;-73
2022/02/08 09:35:47;;;;;;;;;;;10.40;99.90;;;;;;5109934;27;19912;-73
2022/02/08 09:38:13;;;;;;;;;;;10.40;99.90;;;;;;5109053;28;20319;-73
2022/02/08 09:40:38;;;;;;;;;;;10.60;99.90;;;;;;5111307;28;19919;-73
2022/02/08 09:43:05;;;;;;;;;;;10.70;99.90;;;;;;5109450;28;19919;-73
2022/02/08 09:45:33;;;;;;;;;;;10.80;99.90;;;;;;5109960;28;20027;-72
2022/02/08 09:48:20;;;;;;;;;;;10.90;99.90;;;;;;5110859;28;20263;-73
2022/02/08 09:50:48;;;;;;;;;;;10.90;99.90;;;;;;5110939;28;19967;-72
2022/02/08 09:53:23;;;;;;;;;;;10.90;99.90;;;;;;5111082;27;20198;-73
2022/02/08 09:55:48;;;;;;;;;;;10.90;99.90;;;;;;5110872;28;20223;-73
2022/02/08 09:58:14;;;;;;;;;;;10.90;99.90;;;;;;5110193;28;19916;-74
2022/02/08 10:00:41;;;;;;;;;;;10.90;99.90;;;;;;5108033;28;20334;-74
2022/02/08 10:03:07;;;;;;;;;;;10.90;99.90;;;;;;5102455;28;19922;-73
2022/02/08 10:05:40;;;;;;;;;;;10.90;99.90;;;;;;5113257;28;19968;-73
2022/02/08 10:08:06;;;;;;;;;;;10.90;99.90;;;;;;5111902;28;19916;-73
2022/02/08 10:10:33;;;;;;;;;;;10.90;99.90;;;;;;5103513;27;20328;-72
2022/02/08 10:13:13;;;;;;;;;;;11.00;99.90;;;;;;5111629;28;19958;-73
2022/02/08 10:23:35;;;;;;;;;;;11.30;99.90;;;;;;5111216;28;19916;-73
2022/02/08 10:26:09;;;;;;;;;;;11.30;99.90;;;;;;5111861;28;19915;-74
2022/02/08 10:28:53;;;;;;;;;;;11.30;99.90;;;;;;5110936;28;19923;-73
2022/02/08 10:32:16;;;;;;;;;;;11.30;99.90;;;;;;5111003;28;19923;-73
2022/02/08 10:39:57;;;;;;;;;;;11.20;99.90;;;;;;5108008;28;19919;-73
2022/02/08 10:42:22;;;;;;;;;;;11.20;99.90;;;;;;5106477;28;19919;-73
2022/02/08 10:44:48;;;;;;;;;;;11.30;99.90;;;;;;5107775;27;19912;-73
2022/02/08 10:47:14;;;;;;;;;;;11.30;99.90;;;;;;5106091;28;19954;-72
2022/02/08 10:49:39;;;;;;;;;;;11.30;99.90;;;;;;5106923;28;19915;-72
2022/02/08 10:52:09;;;;;;;;;;;11.30;99.90;;;;;;5101086;27;19977;-73
2022/02/08 10:54:41;;;;;;;;;;;11.40;99.90;;;;;;5105337;28;19919;-73
2022/02/08 10:57:16;;;;;;;;;;;11.40;99.90;;;;;;5106742;28;19919;-74
2022/02/08 10:59:51;;;;;;;;;;;11.50;99.90;;;;;;5101512;28;19926;-72
2022/02/08 11:02:24;;;;;;;;;;;11.40;99.90;;;;;;5101239;28;19920;-73
2022/02/08 11:10:14;;;;;;;;;;;11.60;99.90;;;;;;5095803;28;20291;-73
2022/02/08 11:18:59;;;;;;;;;;;11.60;99.90;;;;;;5095327;28;20257;-72
2022/02/08 11:20:50;;;;;;;;;;;11.60;99.90;;;;;;5089655;28;19965;-72
2022/02/08 11:23:23;;;;;;;;;;;11.70;99.90;;;;;;5109782;28;19994;-74
2022/02/08 11:25:51;;;;;;;;;;;11.80;99.90;;;;;;5101867;28;19912;-73
2022/02/08 11:28:27;;;;;;;;;;;11.80;99.90;;;;;;5110029;28;20274;-72
2022/02/08 11:31:15;;;;;;;;;;;11.70;99.90;;;;;;5101307;28;19916;-73
2022/02/08 11:33:59;;;;;;;;;;;11.70;99.90;;;;;;5096994;28;20007;-72
2022/02/08 11:42:55;;;;;;;;;;;11.90;99.90;;;;;;5104594;28;19920;-72
2022/02/08 11:50:42;;;;;;;;;;;11.70;99.90;;;;;;5105995;28;19964;-73
2022/02/08 11:53:23;;;;;;;;;;;11.70;99.90;;;;;;5104602;28;19945;-73
2022/02/08 12:02:03;;;;;;;;;;;11.80;99.90;;;;;;5109022;28;19916;-74
2022/02/08 12:04:38;;;;;;;;;;;11.80;99.90;;;;;;5105122;28;20278;-72
2022/02/08 12:07:08;;;;;;;;;;;11.80;99.90;;;;;;5106275;28;19938;-72
2022/02/08 12:13:02;;;;;;;;;;;11.90;99.90;;;;;;5098637;28;20226;-72
2022/02/08 12:48:25;;;;;;;;;;;11.80;99.90;;;;;;5101904;28;20264;-72
2022/02/08 12:48:42;;;;;;;;;;;11.90;99.90;;;;;;5105417;28;20299;-74
2022/02/08 12:59:37;;;;;;;;;;;11.80;99.90;;;;;;5083078;28;20184;-72
2022/02/08 14:02:28;;;;;;;;;;;11.70;99.90;;;;;;5102975;28;19934;-73
2022/02/08 14:07:50;;;;;;;;;;;11.60;99.90;;;;;;5106338;28;20269;-72
2022/02/08 14:10:40;;;;;;;;;;;11.60;99.90;;;;;;5102893;28;19912;-72
2022/02/08 14:13:34;;;;;;;;;;;11.60;99.90;;;;;;5103411;28;19920;-72
2022/02/08 14:21:21;;;;;;;;;;;11.50;99.90;;;;;;5111065;28;20218;-72
2022/02/08 14:37:03;;;;;;;;;;;11.30;99.90;;;;;;5096037;28;20295;-72
2022/02/08 15:09:24;;;;;;;;;;;11.20;99.90;;;;;;5104135;28;19924;-72
2022/02/08 15:14:36;;;;;;;;;;;11.20;99.90;;;;;;5104028;28;19915;-72
2022/02/08 15:17:01;;;;;;;;;;;11.10;99.90;;;;;;5105969;28;19938;-73
2022/02/08 15:19:27;;;;;;;;;;;11.20;99.90;;;;;;5110502;28;20568;-73
2022/02/08 15:21:52;;;;;;;;;;;11.10;99.90;;;;;;5107389;28;19955;-73
2022/02/08 15:24:18;;;;;;;;;;;11.10;99.90;;;;;;5103195;28;20259;-72
2022/02/08 15:26:47;;;;;;;;;;;11.10;99.90;;;;;;5111890;28;19912;-73
2022/02/08 15:29:14;;;;;;;;;;;11.00;99.90;;;;;;5110098;28;19919;-73
2022/02/08 15:31:40;;;;;;;;;;;11.10;99.90;;;;;;5109035;28;19923;-73
2022/02/08 15:34:05;;;;;;;;;;;11.00;99.90;;;;;;5111086;28;19912;-73
2022/02/08 15:36:31;;;;;;;;;;;11.00;99.90;;;;;;5112337;28;19919;-73
2022/02/08 15:39:04;;;;;;;;;;;10.90;99.90;;;;;;5116385;28;19957;-73
2022/02/08 15:41:33;;;;;;;;;;;10.90;99.90;;;;;;5116140;28;19912;-73
2022/02/08 15:43:59;;;;;;;;;;;10.80;99.90;;;;;;5116628;28;19923;-72
2022/02/08 15:46:26;;;;;;;;;;;10.70;99.90;;;;;;5111226;27;20341;-73
2022/02/08 15:48:53;;;;;;;;;;;10.70;99.90;;;;;;5111293;28;20349;-74
2022/02/08 15:51:27;;;;;;;;;;;10.70;99.90;;;;;;5104937;28;19966;-72
2022/02/08 16:07:01;;;;;;;;;;;10.50;99.90;;;;;;5108534;28;19922;-73
2022/02/08 16:14:44;;;;;;;;;;;10.50;99.90;;;;;;5107376;28;20298;-72
2022/02/08 16:17:25;;;;;;;;;;;10.40;99.90;;;;;;5111122;28;19916;-72
2022/02/08 16:20:06;;;;;;;;;;;10.40;99.90;;;;;;5105268;28;19919;-73
2022/02/08 16:25:15;;;;;;;;;;;10.30;99.90;;;;;;5107808;27;19916;-73
2022/02/08 16:59:23;;;;;;;;;;;10.10;99.90;;;;;;5104684;28;19916;-72
2022/02/08 17:01:49;;;;;;;;;;;10.10;99.90;;;;;;5096185;28;19923;-72
2022/02/08 17:04:15;;;;;;;;;;;10.10;99.90;;;;;;5104673;28;20264;-72
2022/02/08 17:06:40;;;;;;;;;;;10.00;99.90;;;;;;5105704;28;19920;-73
2022/02/08 17:09:14;;;;;;;;;;;10.00;99.90;;;;;;5102643;28;20328;-73
2022/02/08 17:11:46;;;;;;;;;;;10.00;99.90;;;;;;5104979;28;19963;-72
2022/02/08 17:16:55;;;;;;;;;;;9.80;99.90;;;;;;5106960;28;20026;-72
2022/02/08 17:19:45;;;;;;;;;;;9.80;99.90;;;;;;5094072;28;19916;-72
2022/02/08 17:46:37;;;;;;;;;;;9.00;99.90;;;;;;5110058;28;19969;-72
2022/02/08 17:49:03;;;;;;;;;;;8.90;99.90;;;;;;5103439;28;19916;-73
2022/02/08 17:51:29;;;;;;;;;;;9.00;99.90;;;;;;5098716;28;20011;-72
2022/02/08 17:53:54;;;;;;;;;;;8.90;99.90;;;;;;5100727;28;20003;-73
2022/02/08 17:56:20;;;;;;;;;;;8.90;99.90;;;;;;5104219;28;19916;-72
2022/02/08 17:58:48;;;;;;;;;;;8.90;99.90;;;;;;5102880;28;20148;-73
2022/02/08 18:01:14;;;;;;;;;;;8.90;99.90;;;;;;5099982;28;19916;-72
2022/02/08 18:03:40;;;;;;;;;;;8.90;99.90;;;;;;5102040;28;19922;-73
2022/02/08 18:06:05;;;;;;;;;;;8.90;99.90;;;;;;5108448;28;19954;-72
2022/02/08 18:08:33;;;;;;;;;;;8.90;99.90;;;;;;5110090;28;20325;-72
2022/02/08 18:10:59;;;;;;;;;;;8.90;99.90;;;;;;5107298;28;19924;-72
2022/02/08 18:13:27;;;;;;;;;;;8.90;99.90;;;;;;5110327;28;19916;-73
2022/02/08 18:15:52;;;;;;;;;;;8.90;99.90;;;;;;5110921;28;19919;-72
2022/02/08 18:18:22;;;;;;;;;;;8.90;99.90;;;;;;5110041;28;19998;-72
2022/02/08 18:20:55;;;;;;;;;;;8.90;99.90;;;;;;5106786;28;19916;-72
2022/02/08 19:09:04;;;;;;;;;;;9.20;99.90;;;;;;5098397;27;19931;-73
2022/02/08 19:14:52;;;;;;;;;;;9.20;99.90;;;;;;5085196;28;19916;-72
2022/02/08 19:22:16;;;;;;;;;;;9.10;99.90;;;;;;5102276;28;19931;-73
2022/02/08 19:24:42;;;;;;;;;;;9.10;99.90;;;;;;5107148;28;19916;-73
2022/02/08 19:27:08;;;;;;;;;;;9.10;99.90;;;;;;5107957;28;19978;-73
2022/02/08 19:29:35;;;;;;;;;;;9.10;99.90;;;;;;5107921;28;19912;-73
2022/02/08 19:32:06;;;;;;;;;;;9.10;99.90;;;;;;5109643;28;19923;-73
2022/02/08 19:34:32;;;;;;;;;;;9.10;99.90;;;;;;5095813;28;19920;-73
2022/02/08 19:37:03;;;;;;;;;;;9.10;99.90;;;;;;5102596;28;19930;-73
2022/02/08 19:39:29;;;;;;;;;;;9.10;99.90;;;;;;5110493;28;19979;-74
2022/02/08 19:41:55;;;;;;;;;;;9.00;99.90;;;;;;5102770;28;19912;-73
2022/02/08 19:44:20;;;;;;;;;;;9.10;99.90;;;;;;5109510;28;19912;-73
2022/02/08 19:46:46;;;;;;;;;;;9.00;99.90;;;;;;5103755;28;20223;-73
2022/02/08 19:49:13;;;;;;;;;;;9.00;99.90;;;;;;5099748;28;19920;-73
2022/02/08 19:51:39;;;;;;;;;;;9.00;99.90;;;;;;5102796;28;20363;-73
2022/02/08 19:54:07;;;;;;;;;;;9.00;99.90;;;;;;5093743;28;20004;-73
2022/02/08 19:57:00;;;;;;;;;;;9.00;99.90;;;;;;5102911;28;19920;-73
2022/02/08 19:59:20;;;;;;;;;;;9.00;99.90;;;;;;5102712;28;19916;-73
2022/02/08 20:01:51;;;;;;;;;;;9.00;99.90;;;;;;5102283;28;19908;-74
2022/02/08 20:04:18;;;;;;;;;;;9.00;99.90;;;;;;5095219;28;20257;-73
2022/02/08 20:06:45;;;;;;;;;;;9.00;99.90;;;;;;5104118;28;19912;-74
2022/02/08 20:09:10;;;;;;;;;;;9.00;99.90;;;;;;5096214;28;19923;-73
2022/02/08 20:11:36;;;;;;;;;;;9.00;99.90;;;;;;5100942;28;19920;-73
2022/02/08 20:14:02;;;;;;;;;;;9.00;99.90;;;;;;5094291;28;20231;-72
2022/02/08 20:16:29;;;;;;;;;;;9.00;99.90;;;;;;5106023;28;20002;-73
2022/02/08 20:18:58;;;;;;;;;;;9.00;99.90;;;;;;5104784;28;19926;-73
2022/02/08 20:21:25;;;;;;;;;;;9.00;99.90;;;;;;5101771;28;19912;-73
2022/02/08 20:23:53;;;;;;;;;;;9.00;99.90;;;;;;5107576;28;20234;-74
2022/02/08 20:26:26;;;;;;;;;;;9.00;99.90;;;;;;5112317;28;19918;-73
2022/02/08 20:28:55;;;;;;;;;;;9.00;99.90;;;;;;5110813;28;19959;-73
2022/02/08 20:31:21;;;;;;;;;;;9.00;99.90;;;;;;5108547;28;19922;-73
2022/02/08 20:33:47;;;;;;;;;;;9.00;99.90;;;;;;5104170;28;19919;-73
2022/02/08 20:36:13;;;;;;;;;;;9.00;99.90;;;;;;5101532;28;19920;-73
2022/02/08 20:38:39;;;;;;;;;;;9.00;99.90;;;;;;5103582;28;19916;-73
2022/02/08 20:41:05;;;;;;;;;;;9.00;99.90;;;;;;5105370;28;19934;-73
2022/02/08 20:43:36;;;;;;;;;;;9.00;99.90;;;;;;5104717;28;19983;-73
2022/02/08 20:46:04;;;;;;;;;;;9.00;99.90;;;;;;5106947;28;19918;-72
2022/02/08 20:48:31;;;;;;;;;;;9.00;99.90;;;;;;5105761;28;19912;-73
2022/02/08 20:51:02;;;;;;;;;;;9.00;99.90;;;;;;5108298;28;19916;-73
2022/02/08 20:53:38;;;;;;;;;;;9.10;99.90;;;;;;5100974;28;20271;-72
2022/02/08 20:59:04;;;;;;;;;;;9.00;99.90;;;;;;5108899;28;19922;-73
2022/02/08 21:01:32;;;;;;;;;;;9.00;99.90;;;;;;5101069;28;19998;-72
2022/02/08 21:06:28;;;;;;;;;;;9.00;99.90;;;;;;5113037;27;19912;-72
2022/02/08 21:08:54;;;;;;;;;;;9.00;99.90;;;;;;5105557;28;19997;-72
2022/02/08 21:11:22;;;;;;;;;;;9.00;99.90;;;;;;5110288;28;20314;-72
2022/02/08 21:14:02;;;;;;;;;;;9.00;99.90;;;;;;5110341;28;19920;-72
2022/02/08 21:16:30;;;;;;;;;;;9.00;99.90;;;;;;5099186;28;19924;-72
2022/02/08 21:18:57;;;;;;;;;;;9.00;99.90;;;;;;5097141;28;19923;-72
2022/02/08 21:21:23;;;;;;;;;;;9.00;99.90;;;;;;5095139;28;19920;-73
2022/02/08 21:23:50;;;;;;;;;;;9.00;99.90;;;;;;5098576;28;19922;-72
2022/02/08 21:26:22;;;;;;;;;;;9.00;99.90;;;;;;5108959;28;19916;-72
2022/02/08 21:46:04;;;;;;;;;;;8.90;99.90;;;;;;5103559;28;20614;-73
2022/02/08 21:49:56;;;;;;;;;;;8.90;99.90;;;;;;5104841;28;19919;-72
2022/02/08 21:52:30;;;;;;;;;;;8.90;99.90;;;;;;5107831;28;20230;-72
2022/02/08 21:54:57;;;;;;;;;;;8.90;99.90;;;;;;5104790;28;19915;-72
2022/02/08 21:57:32;;;;;;;;;;;8.80;99.90;;;;;;5099622;28;19920;-72
2022/02/08 21:59:58;;;;;;;;;;;8.80;99.90;;;;;;5093377;28;20306;-72
2022/02/08 22:02:23;;;;;;;;;;;8.80;99.90;;;;;;5106655;28;19915;-72
2022/02/08 22:04:49;;;;;;;;;;;8.80;99.90;;;;;;5094809;28;19916;-72
2022/02/08 22:07:15;;;;;;;;;;;8.80;99.90;;;;;;5093096;28;19923;-72
2022/02/08 22:09:43;;;;;;;;;;;8.70;99.90;;;;;;5099667;28;20576;-72
2022/02/08 22:28:49;;;;;;;;;;;8.70;99.90;;;;;;5082191;28;19968;-72
2022/02/08 22:31:16;;;;;;;;;;;8.70;99.90;;;;;;5106374;28;20318;-72
2022/02/08 22:33:48;;;;;;;;;;;8.70;99.90;;;;;;5103073;28;19922;-72
2022/02/08 22:36:21;;;;;;;;;;;8.70;99.90;;;;;;5097421;28;19947;-72
2022/02/08 22:38:55;;;;;;;;;;;8.70;99.90;;;;;;5101143;28;19919;-73
2022/02/08 22:41:26;;;;;;;;;;;8.60;99.90;;;;;;5102076;28;19922;-72
2022/02/08 22:43:54;;;;;;;;;;;8.70;99.90;;;;;;5104700;27;19920;-72
2022/02/08 22:46:20;;;;;;;;;;;8.70;99.90;;;;;;5101757;28;19912;-72